sensor_id;sensor_type;location;lat;lon;timestamp;pressure;altitude;pressure_sealevel;temperature
37452;BMP280;23314;51.114;6.900;2023-01-29T00:01:07;102723.44;;;-2.38
37452;BMP280;23314;51.114;6.900;2023-01-29T00:03:33;102722.41;;;-2.37
37452;BMP280;23314;51.114;6.900;2023-01-29T00:05:59;102715.59;;;-2.38
37452;BMP280;23314;51.114;6.900;2023-01-29T00:08:25;102715.88;;;-2.40
37452;BMP280;23314;51.114;6.900;2023-01-29T00:10:51;102719.53;;;-2.41
37452;BMP280;23314;51.114;6.900;2023-01-29T00:13:16;102708.31;;;-2.41
37452;BMP280;23314;51.114;6.900;2023-01-29T00:15:52;102700.69;;;-2.43
37452;BMP280;23314;51.114;6.900;2023-01-29T00:18:18;102716.38;;;-2.43
37452;BMP280;23314;51.114;6.900;2023-01-29T00:20:44;102711.66;;;-2.46
37452;BMP280;23314;51.114;6.900;2023-01-29T00:23:09;102711.66;;;-2.46
37452;BMP280;23314;51.114;6.900;2023-01-29T00:25:34;102709.84;;;-2.45
37452;BMP280;23314;51.114;6.900;2023-01-29T00:27:59;102700.16;;;-2.45
37452;BMP280;23314;51.114;6.900;2023-01-29T00:30:25;102699.13;;;-2.44
37452;BMP280;23314;51.114;6.900;2023-01-29T00:32:50;102694.16;;;-2.45
37452;BMP280;23314;51.114;6.900;2023-01-29T00:35:17;102697.56;;;-2.45
37452;BMP280;23314;51.114;6.900;2023-01-29T00:37:42;102697.03;;;-2.47
37452;BMP280;23314;51.114;6.900;2023-01-29T00:40:08;102695.72;;;-2.49
37452;BMP280;23314;51.114;6.900;2023-01-29T00:42:33;102685.28;;;-2.49
37452;BMP280;23314;51.114;6.900;2023-01-29T00:45:25;102688.38;;;-2.52
37452;BMP280;23314;51.114;6.900;2023-01-29T00:47:50;102692.84;;;-2.53
37452;BMP280;23314;51.114;6.900;2023-01-29T00:50:16;102693.34;;;-2.56
37452;BMP280;23314;51.114;6.900;2023-01-29T00:52:41;102690.75;;;-2.56
37452;BMP280;23314;51.114;6.900;2023-01-29T00:55:07;102687.09;;;-2.55
37452;BMP280;23314;51.114;6.900;2023-01-29T00:57:34;102684.97;;;-2.58
37452;BMP280;23314;51.114;6.900;2023-01-29T01:00:00;102690.97;;;-2.58
37452;BMP280;23314;51.114;6.900;2023-01-29T01:02:27;102698.06;;;-2.58
37452;BMP280;23314;51.114;6.900;2023-01-29T01:05:13;102694.91;;;-2.60
37452;BMP280;23314;51.114;6.900;2023-01-29T01:07:49;102681.03;;;-2.61
37452;BMP280;23314;51.114;6.900;2023-01-29T01:10:17;102686.53;;;-2.62
37452;BMP280;23314;51.114;6.900;2023-01-29T01:12:53;102686.53;;;-2.62
37452;BMP280;23314;51.114;6.900;2023-01-29T01:15:19;102691.75;;;-2.62
37452;BMP280;23314;51.114;6.900;2023-01-29T01:17:45;102685.50;;;-2.61
37452;BMP280;23314;51.114;6.900;2023-01-29T01:20:13;102689.16;;;-2.62
37452;BMP280;23314;51.114;6.900;2023-01-29T01:22:39;102686.78;;;-2.64
37452;BMP280;23314;51.114;6.900;2023-01-29T01:25:04;102685.72;;;-2.63
37452;BMP280;23314;51.114;6.900;2023-01-29T01:27:30;102693.84;;;-2.64
37452;BMP280;23314;51.114;6.900;2023-01-29T01:29:55;102699.06;;;-2.64
37452;BMP280;23314;51.114;6.900;2023-01-29T01:32:20;102692.81;;;-2.63
37452;BMP280;23314;51.114;6.900;2023-01-29T01:34:46;102703.25;;;-2.63
37452;BMP280;23314;51.114;6.900;2023-01-29T01:37:11;102689.38;;;-2.64
37452;BMP280;23314;51.114;6.900;2023-01-29T01:39:36;102683.66;;;-2.66
37452;BMP280;23314;51.114;6.900;2023-01-29T01:42:02;102690.47;;;-2.65
37452;BMP280;23314;51.114;6.900;2023-01-29T01:44:53;102681.28;;;-2.67
37452;BMP280;23314;51.114;6.900;2023-01-29T01:47:38;102669.50;;;-2.70
37452;BMP280;23314;51.114;6.900;2023-01-29T01:52:47;102655.09;;;-2.73
37452;BMP280;23314;51.114;6.900;2023-01-29T01:55:16;102644.94;;;-2.74
37452;BMP280;23314;51.114;6.900;2023-01-29T01:57:46;102653.81;;;-2.75
37452;BMP280;23314;51.114;6.900;2023-01-29T02:00:14;102655.88;;;-2.77
37452;BMP280;23314;51.114;6.900;2023-01-29T02:02:42;102660.84;;;-2.81
37452;BMP280;23314;51.114;6.900;2023-01-29T02:05:28;102653.25;;;-2.82
37452;BMP280;23314;51.114;6.900;2023-01-29T02:08:13;102657.69;;;-2.83
37452;BMP280;23314;51.114;6.900;2023-01-29T02:10:59;102660.56;;;-2.85
37452;BMP280;23314;51.114;6.900;2023-01-29T02:13:25;102664.75;;;-2.84
37452;BMP280;23314;51.114;6.900;2023-01-29T02:15:50;102671.81;;;-2.84
37452;BMP280;23314;51.114;6.900;2023-01-29T02:18:18;102665.25;;;-2.87
37452;BMP280;23314;51.114;6.900;2023-01-29T02:20:53;102666.81;;;-2.86
37452;BMP280;23314;51.114;6.900;2023-01-29T02:23:44;102673.09;;;-2.87
37452;BMP280;23314;51.114;6.900;2023-01-29T02:29:30;102672.56;;;-2.94
37452;BMP280;23314;51.114;6.900;2023-01-29T02:37:56;102677.19;;;-3.01
37452;BMP280;23314;51.114;6.900;2023-01-29T02:40:29;102679.78;;;-3.01
37452;BMP280;23314;51.114;6.900;2023-01-29T02:43:03;102688.38;;;-3.01
37452;BMP280;23314;51.114;6.900;2023-01-29T02:48:32;102699.38;;;-3.04
37452;BMP280;23314;51.114;6.900;2023-01-29T02:51:05;102711.63;;;-3.04
37452;BMP280;23314;51.114;6.900;2023-01-29T02:53:40;102706.41;;;-3.04
37452;BMP280;23314;51.114;6.900;2023-01-29T02:56:18;102711.91;;;-3.01
37452;BMP280;23314;51.114;6.900;2023-01-29T02:58:53;102714.84;;;-2.97
37452;BMP280;23314;51.114;6.900;2023-01-29T03:01:27;102726.34;;;-2.88
37452;BMP280;23314;51.114;6.900;2023-01-29T03:03:57;102719.34;;;-2.77
37452;BMP280;23314;51.114;6.900;2023-01-29T03:06:36;102716.28;;;-2.68
37452;BMP280;23314;51.114;6.900;2023-01-29T03:09:25;102700.13;;;-2.60
37452;BMP280;23314;51.114;6.900;2023-01-29T03:11:56;102696.75;;;-2.56
37452;BMP280;23314;51.114;6.900;2023-01-29T03:14:33;102689.72;;;-2.55
37452;BMP280;23314;51.114;6.900;2023-01-29T03:17:20;102682.09;;;-2.57
37452;BMP280;23314;51.114;6.900;2023-01-29T03:19:47;102687.59;;;-2.58
37452;BMP280;23314;51.114;6.900;2023-01-29T03:22:13;102676.84;;;-2.62
37452;BMP280;23314;51.114;6.900;2023-01-29T03:24:47;102669.78;;;-2.66
37452;BMP280;23314;51.114;6.900;2023-01-29T03:27:35;102676.53;;;-2.71
37452;BMP280;23314;51.114;6.900;2023-01-29T03:30:21;102669.47;;;-2.75
37452;BMP280;23314;51.114;6.900;2023-01-29T03:33:09;102679.41;;;-2.77
37452;BMP280;23314;51.114;6.900;2023-01-29T03:35:43;102685.13;;;-2.80
37452;BMP280;23314;51.114;6.900;2023-01-29T03:38:12;102697.41;;;-2.81
37452;BMP280;23314;51.114;6.900;2023-01-29T03:40:49;102684.34;;;-2.81
37452;BMP280;23314;51.114;6.900;2023-01-29T03:43:28;102684.59;;;-2.82
37452;BMP280;23314;51.114;6.900;2023-01-29T03:46:09;102698.69;;;-2.84
37452;BMP280;23314;51.114;6.900;2023-01-29T03:48:57;102711.75;;;-2.84
37452;BMP280;23314;51.114;6.900;2023-01-29T03:51:43;102713.09;;;-2.76
37452;BMP280;23314;51.114;6.900;2023-01-29T03:54:17;102698.25;;;-2.70
37452;BMP280;23314;51.114;6.900;2023-01-29T03:59:49;102695.16;;;-2.62
37452;BMP280;23314;51.114;6.900;2023-01-29T04:02:15;102691.50;;;-2.61
37452;BMP280;23314;51.114;6.900;2023-01-29T04:04:48;102687.06;;;-2.60
37452;BMP280;23314;51.114;6.900;2023-01-29T04:07:18;102679.47;;;-2.62
37452;BMP280;23314;51.114;6.900;2023-01-29T04:09:55;102681.81;;;-2.65
37452;BMP280;23314;51.114;6.900;2023-01-29T04:12:27;102682.84;;;-2.66
37452;BMP280;23314;51.114;6.900;2023-01-29T04:14:54;102679.72;;;-2.68
37452;BMP280;23314;51.114;6.900;2023-01-29T04:17:24;102678.13;;;-2.70
37452;BMP280;23314;51.114;6.900;2023-01-29T04:19:52;102665.59;;;-2.67
37452;BMP280;23314;51.114;6.900;2023-01-29T04:22:29;102671.31;;;-2.71
37452;BMP280;23314;51.114;6.900;2023-01-29T04:24:56;102657.47;;;-2.71
37452;BMP280;23314;51.114;6.900;2023-01-29T04:27:39;102660.34;;;-2.73
37452;BMP280;23314;51.114;6.900;2023-01-29T04:30:35;102659.03;;;-2.75
37452;BMP280;23314;51.114;6.900;2023-01-29T04:33:21;102655.13;;;-2.78
37452;BMP280;23314;51.114;6.900;2023-01-29T04:36:00;102640.72;;;-2.80
37452;BMP280;23314;51.114;6.900;2023-01-29T04:41:16;102652.75;;;-2.79
37452;BMP280;23314;51.114;6.900;2023-01-29T04:43:56;102642.78;;;-2.82
37452;BMP280;23314;51.114;6.900;2023-01-29T04:46:46;102638.09;;;-2.80
37452;BMP280;23314;51.114;6.900;2023-01-29T04:52:13;102634.69;;;-2.86
37452;BMP280;23314;51.114;6.900;2023-01-29T04:54:47;102637.84;;;-2.84
37452;BMP280;23314;51.114;6.900;2023-01-29T04:57:21;102635.22;;;-2.84
37452;BMP280;23314;51.114;6.900;2023-01-29T04:59:59;102619.81;;;-2.86
37452;BMP280;23314;51.114;6.900;2023-01-29T05:02:29;102620.34;;;-2.84
37452;BMP280;23314;51.114;6.900;2023-01-29T05:04:57;102627.13;;;-2.82
37452;BMP280;23314;51.114;6.900;2023-01-29T05:07:23;102633.94;;;-2.81
37452;BMP280;23314;51.114;6.900;2023-01-29T05:09:49;102623.47;;;-2.81
37452;BMP280;23314;51.114;6.900;2023-01-29T05:12:16;102618.00;;;-2.80
37452;BMP280;23314;51.114;6.900;2023-01-29T05:14:43;102617.75;;;-2.78
37452;BMP280;23314;51.114;6.900;2023-01-29T05:17:13;102625.06;;;-2.75
37452;BMP280;23314;51.114;6.900;2023-01-29T05:19:40;102622.97;;;-2.73
37452;BMP280;23314;51.114;6.900;2023-01-29T05:22:08;102620.09;;;-2.72
37452;BMP280;23314;51.114;6.900;2023-01-29T05:24:35;102613.84;;;-2.71
37452;BMP280;23314;51.114;6.900;2023-01-29T05:27:01;102618.81;;;-2.69
37452;BMP280;23314;51.114;6.900;2023-01-29T05:29:45;102609.69;;;-2.66
37452;BMP280;23314;51.114;6.900;2023-01-29T05:32:11;102609.19;;;-2.63
37452;BMP280;23314;51.114;6.900;2023-01-29T05:34:36;102613.38;;;-2.62
37452;BMP280;23314;51.114;6.900;2023-01-29T05:37:02;102611.81;;;-2.63
37452;BMP280;23314;51.114;6.900;2023-01-29T05:39:27;102618.59;;;-2.62
37452;BMP280;23314;51.114;6.900;2023-01-29T05:41:52;102610.22;;;-2.64
37452;BMP280;23314;51.114;6.900;2023-01-29T05:44:18;102610.50;;;-2.66
37452;BMP280;23314;51.114;6.900;2023-01-29T05:46:44;102616.78;;;-2.67
37452;BMP280;23314;51.114;6.900;2023-01-29T05:49:10;102623.81;;;-2.67
37452;BMP280;23314;51.114;6.900;2023-01-29T05:51:35;102622.22;;;-2.68
37452;BMP280;23314;51.114;6.900;2023-01-29T05:54:01;102619.63;;;-2.68
37452;BMP280;23314;51.114;6.900;2023-01-29T05:56:26;102608.63;;;-2.71
37452;BMP280;23314;51.114;6.900;2023-01-29T05:58:51;102608.38;;;-2.69
37452;BMP280;23314;51.114;6.900;2023-01-29T06:01:19;102612.78;;;-2.70
37452;BMP280;23314;51.114;6.900;2023-01-29T06:03:45;102620.63;;;-2.70
37452;BMP280;23314;51.114;6.900;2023-01-29T06:06:11;102612.59;;;-2.68
37452;BMP280;23314;51.114;6.900;2023-01-29T06:08:37;102613.34;;;-2.67
37452;BMP280;23314;51.114;6.900;2023-01-29T06:11:02;102622.75;;;-2.66
37452;BMP280;23314;51.114;6.900;2023-01-29T06:13:29;102627.75;;;-2.65
37452;BMP280;23314;51.114;6.900;2023-01-29T06:15:54;102632.97;;;-2.65
37452;BMP280;23314;51.114;6.900;2023-01-29T06:18:20;102635.03;;;-2.62
37452;BMP280;23314;51.114;6.900;2023-01-29T06:20:45;102629.81;;;-2.62
37452;BMP280;23314;51.114;6.900;2023-01-29T06:23:10;102623.56;;;-2.61
37452;BMP280;23314;51.114;6.900;2023-01-29T06:25:36;102639.00;;;-2.59
37452;BMP280;23314;51.114;6.900;2023-01-29T06:28:01;102643.94;;;-2.58
37452;BMP280;23314;51.114;6.900;2023-01-29T06:30:26;102654.69;;;-2.54
37452;BMP280;23314;51.114;6.900;2023-01-29T06:32:56;102652.06;;;-2.49
37452;BMP280;23314;51.114;6.900;2023-01-29T06:35:23;102659.94;;;-2.38
37452;BMP280;23314;51.114;6.900;2023-01-29T06:37:48;102651.09;;;-2.27
37452;BMP280;23314;51.114;6.900;2023-01-29T06:40:14;102663.13;;;-2.16
37452;BMP280;23314;51.114;6.900;2023-01-29T06:42:39;102666.78;;;-2.01
37452;BMP280;23314;51.114;6.900;2023-01-29T06:45:05;102673.38;;;-1.88
37452;BMP280;23314;51.114;6.900;2023-01-29T06:47:30;102669.44;;;-1.75
37452;BMP280;23314;51.114;6.900;2023-01-29T06:49:55;102674.16;;;-1.62
37452;BMP280;23314;51.114;6.900;2023-01-29T06:52:21;102666.56;;;-1.53
37452;BMP280;23314;51.114;6.900;2023-01-29T06:54:46;102669.13;;;-1.43
37452;BMP280;23314;51.114;6.900;2023-01-29T06:57:11;102674.41;;;-1.32
37452;BMP280;23314;51.114;6.900;2023-01-29T06:59:37;102652.41;;;-1.31
37452;BMP280;23314;51.114;6.900;2023-01-29T07:02:03;102664.44;;;-1.25
37452;BMP280;23314;51.114;6.900;2023-01-29T07:04:28;102665.72;;;-1.17
37452;BMP280;23314;51.114;6.900;2023-01-29T07:06:53;102660.72;;;-1.09
37452;BMP280;23314;51.114;6.900;2023-01-29T07:09:18;102658.59;;;-1.01
37452;BMP280;23314;51.114;6.900;2023-01-29T07:11:44;102653.06;;;-0.95
37452;BMP280;23314;51.114;6.900;2023-01-29T07:14:09;102661.16;;;-0.91
37452;BMP280;23314;51.114;6.900;2023-01-29T07:16:34;102656.19;;;-0.87
37452;BMP280;23314;51.114;6.900;2023-01-29T07:19:00;102654.09;;;-0.85
37452;BMP280;23314;51.114;6.900;2023-01-29T07:21:25;102658.00;;;-0.83
37452;BMP280;23314;51.114;6.900;2023-01-29T07:23:51;102653.78;;;-0.79
37452;BMP280;23314;51.114;6.900;2023-01-29T07:26:16;102651.94;;;-0.78
37452;BMP280;23314;51.114;6.900;2023-01-29T07:28:41;102653.25;;;-0.76
37452;BMP280;23314;51.114;6.900;2023-01-29T07:31:07;102648.47;;;-0.68
37452;BMP280;23314;51.114;6.900;2023-01-29T07:33:35;102650.81;;;-0.62
37452;BMP280;23314;51.114;6.900;2023-01-29T07:36:00;102662.31;;;-0.57
37452;BMP280;23314;51.114;6.900;2023-01-29T07:38:26;102658.59;;;-0.51
37452;BMP280;23314;51.114;6.900;2023-01-29T07:40:52;102664.06;;;-0.48
37452;BMP280;23314;51.114;6.900;2023-01-29T07:43:17;102658.03;;;-0.43
37452;BMP280;23314;51.114;6.900;2023-01-29T07:45:43;102652.00;;;-0.43
37452;BMP280;23314;51.114;6.900;2023-01-29T07:48:10;102645.66;;;-0.37
37452;BMP280;23314;51.114;6.900;2023-01-29T07:50:37;102657.72;;;-0.31
37452;BMP280;23314;51.114;6.900;2023-01-29T07:53:03;102648.28;;;-0.27
37452;BMP280;23314;51.114;6.900;2023-01-29T07:55:28;102630.34;;;-0.20
37452;BMP280;23314;51.114;6.900;2023-01-29T07:58:01;102648.44;;;-0.13
37452;BMP280;23314;51.114;6.900;2023-01-29T08:00:28;102641.81;;;-0.05
37452;BMP280;23314;51.114;6.900;2023-01-29T08:03:21;102643.59;;;-0.01
37452;BMP280;23314;51.114;6.900;2023-01-29T08:05:46;102646.19;;;0.05
37452;BMP280;23314;51.114;6.900;2023-01-29T08:08:11;102642.72;;;0.09
37452;BMP280;23314;51.114;6.900;2023-01-29T08:10:38;102637.44;;;0.14
37452;BMP280;23314;51.114;6.900;2023-01-29T08:13:04;102636.88;;;0.18
37452;BMP280;23314;51.114;6.900;2023-01-29T08:15:30;102639.19;;;0.24
37452;BMP280;23314;51.114;6.900;2023-01-29T08:17:55;102644.38;;;0.29
37452;BMP280;23314;51.114;6.900;2023-01-29T08:20:21;102644.03;;;0.36
37452;BMP280;23314;51.114;6.900;2023-01-29T08:22:47;102643.69;;;0.43
37452;BMP280;23314;51.114;6.900;2023-01-29T08:25:13;102660.16;;;0.49
37452;BMP280;23314;51.114;6.900;2023-01-29T08:27:40;102655.69;;;0.54
37452;BMP280;23314;51.114;6.900;2023-01-29T08:30:06;102654.06;;;0.58
37452;BMP280;23314;51.114;6.900;2023-01-29T08:32:32;102653.47;;;0.62
37452;BMP280;23314;51.114;6.900;2023-01-29T08:34:57;102657.91;;;0.66
37452;BMP280;23314;51.114;6.900;2023-01-29T08:37:22;102654.72;;;0.69
37452;BMP280;23314;51.114;6.900;2023-01-29T08:39:48;102647.06;;;0.73
37452;BMP280;23314;51.114;6.900;2023-01-29T08:42:13;102636.22;;;0.80
37452;BMP280;23314;51.114;6.900;2023-01-29T08:44:38;102633.22;;;0.86
37452;BMP280;23314;51.114;6.900;2023-01-29T08:47:04;102635.81;;;0.92
37452;BMP280;23314;51.114;6.900;2023-01-29T08:49:30;102637.09;;;0.94
37452;BMP280;23314;51.114;6.900;2023-01-29T08:51:55;102641.78;;;0.97
37452;BMP280;23314;51.114;6.900;2023-01-29T08:54:22;102640.16;;;1.01
37452;BMP280;23314;51.114;6.900;2023-01-29T08:56:47;102637.75;;;1.05
37452;BMP280;23314;51.114;6.900;2023-01-29T08:59:13;102635.03;;;1.10
37452;BMP280;23314;51.114;6.900;2023-01-29T09:01:38;102630.56;;;1.11
37452;BMP280;23314;51.114;6.900;2023-01-29T09:04:03;102623.97;;;1.13
37452;BMP280;23314;51.114;6.900;2023-01-29T09:06:29;102621.56;;;1.17
37452;BMP280;23314;51.114;6.900;2023-01-29T09:08:54;102619.66;;;1.23
37452;BMP280;23314;51.114;6.900;2023-01-29T09:11:20;102621.34;;;1.32
37452;BMP280;23314;51.114;6.900;2023-01-29T09:13:45;102610.72;;;1.38
37452;BMP280;23314;51.114;6.900;2023-01-29T09:16:10;102610.88;;;1.46
37452;BMP280;23314;51.114;6.900;2023-01-29T09:18:36;102606.22;;;1.57
37452;BMP280;23314;51.114;6.900;2023-01-29T09:21:01;102605.09;;;1.63
37452;BMP280;23314;51.114;6.900;2023-01-29T09:23:27;102624.19;;;1.69
37452;BMP280;23314;51.114;6.900;2023-01-29T09:25:52;102621.00;;;1.72
37452;BMP280;23314;51.114;6.900;2023-01-29T09:28:17;102628.44;;;1.84
37452;BMP280;23314;51.114;6.900;2023-01-29T09:30:43;102614.97;;;2.00
37452;BMP280;23314;51.114;6.900;2023-01-29T09:33:09;102618.44;;;2.14
37452;BMP280;23314;51.114;6.900;2023-01-29T09:35:34;102614.25;;;2.27
37452;BMP280;23314;51.114;6.900;2023-01-29T09:38:00;102615.59;;;2.38
37452;BMP280;23314;51.114;6.900;2023-01-29T09:43:17;102600.94;;;2.60
37452;BMP280;23314;51.114;6.900;2023-01-29T09:45:52;102598.38;;;2.69
37452;BMP280;23314;51.114;6.900;2023-01-29T09:48:21;102593.97;;;2.78
37452;BMP280;23314;51.114;6.900;2023-01-29T09:50:50;102595.19;;;2.95
37452;BMP280;23314;51.114;6.900;2023-01-29T09:53:25;102590.19;;;3.07
37452;BMP280;23314;51.114;6.900;2023-01-29T09:56:01;102587.28;;;3.17
37452;BMP280;23314;51.114;6.900;2023-01-29T09:58:31;102578.81;;;3.29
37452;BMP280;23314;51.114;6.900;2023-01-29T10:06:19;102574.03;;;3.63
37452;BMP280;23314;51.114;6.900;2023-01-29T10:11:51;102583.94;;;3.89
37452;BMP280;23314;51.114;6.900;2023-01-29T10:14:33;102579.63;;;4.02
37452;BMP280;23314;51.114;6.900;2023-01-29T10:17:16;102577.47;;;4.12
37452;BMP280;23314;51.114;6.900;2023-01-29T10:23:35;102580.34;;;4.34
37452;BMP280;23314;51.114;6.900;2023-01-29T10:26:01;102578.16;;;4.36
37452;BMP280;23314;51.114;6.900;2023-01-29T10:28:44;102573.81;;;4.40
37452;BMP280;23314;51.114;6.900;2023-01-29T10:31:23;102564.97;;;4.45
37452;BMP280;23314;51.114;6.900;2023-01-29T10:33:53;102569.00;;;4.42
37452;BMP280;23314;51.114;6.900;2023-01-29T10:36:26;102579.59;;;4.42
37452;BMP280;23314;51.114;6.900;2023-01-29T10:38:53;102579.88;;;4.40
37452;BMP280;23314;51.114;6.900;2023-01-29T10:58:01;102534.59;;;4.24
37452;BMP280;23314;51.114;6.900;2023-01-29T11:00:36;102530.88;;;4.34
37452;BMP280;23314;51.114;6.900;2023-01-29T11:03:17;102532.78;;;4.42
37452;BMP280;23314;51.114;6.900;2023-01-29T11:08:20;102517.38;;;4.53
37452;BMP280;23314;51.114;6.900;2023-01-29T11:10:54;102517.22;;;4.58
37452;BMP280;23314;51.114;6.900;2023-01-29T11:13:26;102505.25;;;4.61
37452;BMP280;23314;51.114;6.900;2023-01-29T11:15:53;102499.66;;;4.63
37452;BMP280;23314;51.114;6.900;2023-01-29T11:18:19;102500.13;;;4.56
37452;BMP280;23314;51.114;6.900;2023-01-29T11:20:45;102508.22;;;4.51
37452;BMP280;23314;51.114;6.900;2023-01-29T11:25:53;102506.97;;;4.57
37452;BMP280;23314;51.114;6.900;2023-01-29T11:28:40;102500.09;;;4.65
37452;BMP280;23314;51.114;6.900;2023-01-29T11:31:20;102497.59;;;4.77
37452;BMP280;23314;51.114;6.900;2023-01-29T11:33:47;102496.81;;;4.85
37452;BMP280;23314;51.114;6.900;2023-01-29T11:36:29;102492.59;;;4.93
37452;BMP280;23314;51.114;6.900;2023-01-29T11:39:19;102492.25;;;5.03
37452;BMP280;23314;51.114;6.900;2023-01-29T11:41:55;102485.84;;;5.13
37452;BMP280;23314;51.114;6.900;2023-01-29T11:44:35;102489.53;;;5.21
37452;BMP280;23314;51.114;6.900;2023-01-29T11:47:18;102494.34;;;5.28
37452;BMP280;23314;51.114;6.900;2023-01-29T11:49:47;102480.31;;;5.36
37452;BMP280;23314;51.114;6.900;2023-01-29T11:52:14;102481.03;;;5.45
37452;BMP280;23314;51.114;6.900;2023-01-29T11:54:51;102463.88;;;5.51
37452;BMP280;23314;51.114;6.900;2023-01-29T11:57:33;102472.00;;;5.46
37452;BMP280;23314;51.114;6.900;2023-01-29T12:00:03;102460.63;;;5.46
37452;BMP280;23314;51.114;6.900;2023-01-29T12:02:41;102456.31;;;5.41
37452;BMP280;23314;51.114;6.900;2023-01-29T12:05:16;102451.31;;;5.40
37452;BMP280;23314;51.114;6.900;2023-01-29T12:07:44;102448.03;;;5.43
37452;BMP280;23314;51.114;6.900;2023-01-29T12:10:38;102439.91;;;5.48
37452;BMP280;23314;51.114;6.900;2023-01-29T12:15:39;102439.59;;;5.49
37452;BMP280;23314;51.114;6.900;2023-01-29T12:20:50;102416.84;;;5.48
37452;BMP280;23314;51.114;6.900;2023-01-29T12:26:04;102404.88;;;5.42
37452;BMP280;23314;51.114;6.900;2023-01-29T12:28:37;102387.91;;;5.43
37452;BMP280;23314;51.114;6.900;2023-01-29T12:36:31;102351.50;;;5.61
37452;BMP280;23314;51.114;6.900;2023-01-29T12:38:58;102337.31;;;5.66
37452;BMP280;23314;51.114;6.900;2023-01-29T12:41:29;102330.91;;;5.67
37452;BMP280;23314;51.114;6.900;2023-01-29T12:44:02;102321.00;;;5.64
37452;BMP280;23314;51.114;6.900;2023-01-29T12:46:38;102325.81;;;5.62
37452;BMP280;23314;51.114;6.900;2023-01-29T12:49:11;102318.19;;;5.60
37452;BMP280;23314;51.114;6.900;2023-01-29T12:51:41;102316.97;;;5.58
37452;BMP280;23314;51.114;6.900;2023-01-29T12:54:13;102310.59;;;5.59
37452;BMP280;23314;51.114;6.900;2023-01-29T12:56:47;102300.94;;;5.54
37452;BMP280;23314;51.114;6.900;2023-01-29T12:59:19;102303.50;;;5.50
37452;BMP280;23314;51.114;6.900;2023-01-29T13:01:54;102294.44;;;5.51
37452;BMP280;23314;51.114;6.900;2023-01-29T13:04:35;102295.63;;;5.54
37452;BMP280;23314;51.114;6.900;2023-01-29T13:07:23;102292.59;;;5.52
37452;BMP280;23314;51.114;6.900;2023-01-29T13:09:56;102281.09;;;5.48
37452;BMP280;23314;51.114;6.900;2023-01-29T13:12:26;102271.59;;;5.47
37452;BMP280;23314;51.114;6.900;2023-01-29T13:17:42;102257.72;;;5.50
37452;BMP280;23314;51.114;6.900;2023-01-29T13:20:23;102253.97;;;5.51
37452;BMP280;23314;51.114;6.900;2023-01-29T13:22:51;102250.31;;;5.56
37452;BMP280;23314;51.114;6.900;2023-01-29T13:25:19;102248.13;;;5.58
37452;BMP280;23314;51.114;6.900;2023-01-29T13:27:45;102241.09;;;5.62
37452;BMP280;23314;51.114;6.900;2023-01-29T13:30:29;102246.91;;;5.55
37452;BMP280;23314;51.114;6.900;2023-01-29T13:32:57;102247.69;;;5.56
37452;BMP280;23314;51.114;6.900;2023-01-29T13:35:34;102240.84;;;5.55
37452;BMP280;23314;51.114;6.900;2023-01-29T13:38:01;102244.94;;;5.52
37452;BMP280;23314;51.114;6.900;2023-01-29T13:40:29;102247.13;;;5.50
37452;BMP280;23314;51.114;6.900;2023-01-29T13:42:56;102247.78;;;5.47
37452;BMP280;23314;51.114;6.900;2023-01-29T13:45:24;102250.44;;;5.47
37452;BMP280;23314;51.114;6.900;2023-01-29T13:47:51;102252.09;;;5.51
37452;BMP280;23314;51.114;6.900;2023-01-29T13:50:28;102251.00;;;5.53
37452;BMP280;23314;51.114;6.900;2023-01-29T13:53:02;102255.28;;;5.57
37452;BMP280;23314;51.114;6.900;2023-01-29T13:55:31;102257.94;;;5.57
37452;BMP280;23314;51.114;6.900;2023-01-29T13:58:01;102256.84;;;5.58
37452;BMP280;23314;51.114;6.900;2023-01-29T14:10:37;102262.75;;;5.43
37452;BMP280;23314;51.114;6.900;2023-01-29T14:15:35;102259.53;;;5.37
37452;BMP280;23314;51.114;6.900;2023-01-29T14:31:50;102246.56;;;5.23
37452;BMP280;23314;51.114;6.900;2023-01-29T14:34:22;102246.88;;;5.21
37452;BMP280;23314;51.114;6.900;2023-01-29T14:36:49;102242.25;;;5.18
37452;BMP280;23314;51.114;6.900;2023-01-29T14:40:06;102246.41;;;5.19
37452;BMP280;23314;51.114;6.900;2023-01-29T14:42:18;102237.72;;;5.19
37452;BMP280;23314;51.114;6.900;2023-01-29T14:49:56;102239.47;;;5.15
37452;BMP280;23314;51.114;6.900;2023-01-29T14:52:31;102243.09;;;5.10
37452;BMP280;23314;51.114;6.900;2023-01-29T14:54:59;102242.19;;;5.06
37452;BMP280;23314;51.114;6.900;2023-01-29T14:57:27;102234.56;;;5.04
37452;BMP280;23314;51.114;6.900;2023-01-29T14:59:59;102241.16;;;4.98
37452;BMP280;23314;51.114;6.900;2023-01-29T15:02:44;102237.16;;;4.92
37452;BMP280;23314;51.114;6.900;2023-01-29T15:05:13;102240.13;;;4.91
37452;BMP280;23314;51.114;6.900;2023-01-29T15:07:49;102238.56;;;4.89
37452;BMP280;23314;51.114;6.900;2023-01-29T15:10:25;102239.66;;;4.88
37452;BMP280;23314;51.114;6.900;2023-01-29T15:12:58;102235.00;;;4.85
37452;BMP280;23314;51.114;6.900;2023-01-29T15:15:39;102230.38;;;4.82
37452;BMP280;23314;51.114;6.900;2023-01-29T15:18:16;102231.47;;;4.81
37452;BMP280;23314;51.114;6.900;2023-01-29T15:20:43;102234.88;;;4.82
37452;BMP280;23314;51.114;6.900;2023-01-29T15:23:28;102232.56;;;4.80
37452;BMP280;23314;51.114;6.900;2023-01-29T15:25:57;102234.28;;;4.76
37452;BMP280;23314;51.114;6.900;2023-01-29T15:28:23;102229.03;;;4.67
37452;BMP280;23314;51.114;6.900;2023-01-29T15:30:53;102225.94;;;4.65
37452;BMP280;23314;51.114;6.900;2023-01-29T15:33:19;102223.28;;;4.65
37452;BMP280;23314;51.114;6.900;2023-01-29T15:35:46;102229.03;;;4.67
37452;BMP280;23314;51.114;6.900;2023-01-29T15:38:17;102215.06;;;4.67
37452;BMP280;23314;51.114;6.900;2023-01-29T15:41:00;102212.41;;;4.67
37452;BMP280;23314;51.114;6.900;2023-01-29T15:43:30;102216.16;;;4.66
37452;BMP280;23314;51.114;6.900;2023-01-29T15:46:01;102208.69;;;4.68
37452;BMP280;23314;51.114;6.900;2023-01-29T15:48:32;102202.94;;;4.66
37452;BMP280;23314;51.114;6.900;2023-01-29T15:50:59;102200.63;;;4.64
37452;BMP280;23314;51.114;6.900;2023-01-29T15:53:33;102196.09;;;4.65
37452;BMP280;23314;51.114;6.900;2023-01-29T15:56:00;102188.63;;;4.67
37452;BMP280;23314;51.114;6.900;2023-01-29T15:58:31;102193.91;;;4.67
37452;BMP280;23314;51.114;6.900;2023-01-29T16:00:58;102183.78;;;4.69
37452;BMP280;23314;51.114;6.900;2023-01-29T16:03:25;102181.59;;;4.71
37452;BMP280;23314;51.114;6.900;2023-01-29T16:05:52;102192.94;;;4.71
37452;BMP280;23314;51.114;6.900;2023-01-29T16:08:20;102192.31;;;4.74